Terminal Aerodrome Forecast
Issued by NWS

Home | Current Version | Previous Version | Text Only | Print | Product List | Glossary On
Versions: 1 2 3 4 5 6 7 8 9 10 11 12 13 14 15 16 17 18 19 20 21 22 23 24 25 26 27 28 29 30 31 32 33 34 35 36 37 38 39 40 41
000
FTUS43 KDTX 230521
TAFYIP
TAF
KYIP 230521Z 2306/2406 18008KT 5SM BR BKN035
     FM230800 19009KT 4SM BR SCT015 BKN025
     FM231100 20010KT 3SM BR BKN015
      TEMPO 2311/2313 2SM BR OVC012
     FM231400 24007KT 5SM BR BKN025
     FM231600 31007KT P6SM SCT040 SCT150
     FM232200 01008KT 6SM HZ SCT035 BKN100
     FM240200 02007KT 5SM BR BKN025=

USA.gov is the U.S. government's official web portal to all federal, state and local government web resources and services.